createdAt,value
2022-09-12T00:01:19.515Z,14.38
2022-09-12T00:03:47.381Z,14.35
2022-09-12T00:06:30.918Z,14.33
2022-09-12T00:09:06.229Z,14.30
2022-09-12T00:11:37.491Z,14.25
2022-09-12T00:14:05.843Z,14.21
2022-09-12T00:16:35.870Z,14.18
2022-09-12T00:19:05.929Z,14.17
2022-09-12T00:21:35.314Z,14.15
2022-09-12T00:24:03.145Z,14.14
2022-09-12T00:26:30.490Z,14.11
2022-09-12T00:28:57.527Z,14.09
2022-09-12T00:31:26.768Z,14.06
2022-09-12T00:33:58.069Z,14.00
2022-09-12T00:36:27.002Z,13.98
2022-09-12T00:38:54.877Z,13.97
2022-09-12T00:41:26.102Z,13.94
2022-09-12T00:44:15.914Z,13.88
2022-09-12T00:46:52.995Z,13.86
2022-09-12T00:49:35.213Z,13.85
2022-09-12T00:52:22.089Z,13.83
2022-09-12T00:55:23.630Z,13.81
2022-09-12T00:57:57.819Z,13.79
2022-09-12T01:00:28.276Z,13.78
2022-09-12T01:03:09.001Z,13.77
2022-09-12T01:05:44.938Z,13.76
2022-09-12T01:08:12.209Z,13.76
2022-09-12T01:10:42.147Z,13.73
2022-09-12T01:13:11.154Z,13.70
2022-09-12T01:15:40.397Z,13.68
2022-09-12T01:18:16.158Z,13.65
2022-09-12T01:20:51.699Z,13.64
2022-09-12T01:23:39.761Z,13.61
2022-09-12T01:26:36.841Z,13.60
2022-09-12T01:29:37.073Z,13.57
2022-09-12T01:32:48.244Z,13.55
2022-09-12T01:36:03.113Z,13.52
2022-09-12T01:38:50.333Z,13.50
2022-09-12T01:42:10.370Z,13.48
2022-09-12T01:44:37.557Z,13.43
2022-09-12T01:47:22.892Z,13.40
2022-09-12T01:50:06.883Z,13.39
2022-09-12T01:53:03.362Z,13.37
2022-09-12T01:55:38.202Z,13.31
2022-09-12T01:58:41.831Z,13.29
2022-09-12T02:01:21.731Z,13.26
2022-09-12T02:04:10.579Z,13.23
2022-09-12T02:06:59.052Z,13.20
2022-09-12T02:09:44.386Z,13.18
2022-09-12T02:12:17.898Z,13.16
2022-09-12T02:14:55.476Z,13.15
2022-09-12T02:17:26.932Z,13.15
2022-09-12T02:20:25.875Z,13.15
2022-09-12T02:23:01.175Z,13.15
2022-09-12T02:25:30.934Z,13.16
2022-09-12T02:28:33.037Z,13.16
2022-09-12T02:31:30.905Z,13.14
2022-09-12T02:34:15.410Z,13.12
2022-09-12T02:37:03.173Z,13.12
2022-09-12T02:39:30.212Z,13.12
2022-09-12T02:42:01.841Z,13.11
2022-09-12T02:44:31.861Z,13.12
2022-09-12T02:47:25.160Z,13.13
2022-09-12T02:49:53.926Z,13.12
2022-09-12T02:52:21.441Z,13.09
2022-09-12T02:54:50.370Z,13.10
2022-09-12T02:57:23.118Z,13.10
2022-09-12T02:59:56.384Z,13.09
2022-09-12T03:02:28.191Z,13.05
2022-09-12T03:05:25.165Z,13.02
2022-09-12T03:08:16.041Z,12.99
2022-09-12T03:10:51.729Z,12.98
2022-09-12T03:13:32.599Z,12.95
2022-09-12T03:16:17.567Z,12.93
2022-09-12T03:19:02.063Z,12.90
2022-09-12T03:21:50.246Z,12.88
2022-09-12T03:24:48.797Z,12.86
2022-09-12T03:27:20.880Z,12.84
2022-09-12T03:29:49.633Z,12.85
2022-09-12T03:32:16.463Z,12.85
2022-09-12T03:34:43.323Z,12.85
2022-09-12T03:37:10.112Z,12.87
2022-09-12T03:39:37.132Z,12.87
2022-09-12T03:42:04.277Z,12.90
2022-09-12T03:44:31.058Z,12.93
2022-09-12T03:46:57.859Z,12.96
2022-09-12T03:49:24.714Z,13.00
2022-09-12T03:51:51.518Z,13.05
2022-09-12T03:54:18.337Z,13.06
2022-09-12T03:56:45.155Z,13.10
2022-09-12T03:59:11.926Z,13.13
2022-09-12T04:01:38.820Z,13.14
2022-09-12T04:04:05.606Z,13.15
2022-09-12T04:06:32.493Z,13.16
2022-09-12T04:09:00.061Z,13.16
2022-09-12T04:11:26.932Z,13.14
2022-09-12T04:13:54.346Z,13.14
2022-09-12T04:16:21.618Z,13.13
2022-09-12T04:18:48.661Z,13.08
2022-09-12T04:21:24.397Z,13.06
2022-09-12T04:23:54.214Z,13.06
2022-09-12T04:26:21.149Z,13.07
2022-09-12T04:28:48.493Z,13.09
2022-09-12T04:31:20.731Z,13.12
2022-09-12T04:33:47.738Z,13.12
2022-09-12T04:36:17.471Z,13.14
2022-09-12T04:38:47.933Z,13.16
2022-09-12T04:41:27.249Z,13.17
2022-09-12T04:44:04.652Z,13.20
2022-09-12T04:46:36.946Z,13.20
2022-09-12T04:49:04.509Z,13.22
2022-09-12T04:51:35.082Z,13.24
2022-09-12T04:54:06.333Z,13.27
2022-09-12T04:56:37.235Z,13.29
2022-09-12T04:59:04.426Z,13.32
2022-09-12T05:01:31.592Z,13.33
2022-09-12T05:03:59.999Z,13.34
2022-09-12T05:06:34.488Z,13.39
2022-09-12T05:09:04.147Z,13.40
2022-09-12T05:12:02.508Z,13.41
2022-09-12T05:14:24.759Z,13.41
2022-09-12T05:16:51.695Z,13.40
2022-09-12T05:19:18.858Z,13.42
2022-09-12T05:21:48.481Z,13.44
2022-09-12T05:24:15.449Z,13.44
2022-09-12T05:26:42.272Z,13.46
2022-09-12T05:29:09.047Z,13.45
2022-09-12T05:31:36.343Z,13.45
2022-09-12T05:34:09.102Z,13.44
2022-09-12T05:36:39.622Z,13.46
2022-09-12T05:39:06.726Z,13.46
2022-09-12T05:41:34.968Z,13.46
2022-09-12T05:44:06.127Z,13.48
2022-09-12T05:46:40.581Z,13.52
2022-09-12T05:49:11.672Z,13.53
2022-09-12T05:51:42.933Z,13.54
2022-09-12T05:54:14.202Z,13.55
2022-09-12T05:56:44.015Z,13.56
2022-09-12T05:59:20.979Z,13.59
2022-09-12T06:01:49.128Z,13.59
2022-09-12T06:04:16.950Z,13.62
2022-09-12T06:06:45.627Z,13.65
2022-09-12T06:09:15.569Z,13.66
2022-09-12T06:11:43.965Z,13.68
2022-09-12T06:14:14.083Z,13.71
2022-09-12T06:16:41.289Z,13.75
2022-09-12T06:19:19.305Z,13.76
2022-09-12T06:21:49.440Z,13.77
2022-09-12T06:24:18.045Z,13.79
2022-09-12T06:26:45.419Z,13.79
2022-09-12T06:29:13.304Z,13.80
2022-09-12T06:31:42.921Z,13.78
2022-09-12T06:34:14.380Z,13.77
2022-09-12T06:36:45.784Z,13.75
2022-09-12T06:39:18.955Z,13.72
2022-09-12T06:41:47.092Z,13.71
2022-09-12T06:44:23.201Z,13.69
2022-09-12T06:46:50.243Z,13.69
2022-09-12T06:49:17.814Z,13.68
2022-09-12T06:51:44.848Z,13.65
2022-09-12T06:54:17.234Z,13.64
2022-09-12T06:56:45.123Z,13.66
2022-09-12T06:59:12.600Z,13.71
2022-09-12T07:01:40.535Z,13.77
2022-09-12T07:04:07.607Z,13.88
2022-09-12T07:06:41.509Z,14.05
2022-09-12T07:09:13.449Z,14.28
2022-09-12T07:11:42.134Z,14.49
2022-09-12T07:14:13.035Z,14.73
2022-09-12T07:16:40.627Z,15.11
2022-09-12T07:19:09.280Z,15.47
2022-09-12T07:21:40.003Z,16.01
2022-09-12T07:24:10.080Z,16.28
2022-09-12T07:26:38.709Z,16.13
2022-09-12T07:29:34.793Z,16.19
2022-09-12T07:31:52.453Z,16.62
2022-09-12T07:34:19.314Z,17.17
2022-09-12T07:36:46.108Z,17.50
2022-09-12T07:39:12.988Z,17.71
2022-09-12T07:41:40.118Z,18.08
2022-09-12T07:44:07.249Z,18.32
2022-09-12T07:46:35.156Z,18.21
2022-09-12T07:49:02.917Z,17.88
2022-09-12T07:51:31.274Z,17.57
2022-09-12T07:53:58.474Z,17.31
2022-09-12T07:56:32.034Z,17.03
2022-09-12T07:59:01.598Z,16.82
2022-09-12T08:01:28.601Z,16.69
2022-09-12T08:04:00.634Z,16.58
2022-09-12T08:06:32.153Z,16.54
2022-09-12T08:09:00.136Z,16.53
2022-09-12T08:11:29.699Z,16.52
2022-09-12T08:13:58.116Z,16.55
2022-09-12T08:16:31.272Z,16.62
2022-09-12T08:19:00.946Z,16.67
2022-09-12T08:21:32.275Z,16.73
2022-09-12T08:24:06.409Z,16.82
2022-09-12T08:26:34.827Z,16.89
2022-09-12T08:29:02.441Z,17.00
2022-09-12T08:31:29.455Z,17.07
2022-09-12T08:33:57.799Z,17.16
2022-09-12T08:36:28.269Z,17.21
2022-09-12T08:39:06.556Z,17.25
2022-09-12T08:41:46.929Z,17.31
2022-09-12T08:44:54.162Z,17.31
2022-09-12T08:47:40.212Z,17.32
2022-09-12T08:50:27.535Z,17.45
2022-09-12T08:53:10.505Z,17.56
2022-09-12T08:55:43.236Z,17.61
2022-09-12T08:58:29.094Z,17.70
2022-09-12T09:01:20.601Z,17.79
2022-09-12T09:03:59.134Z,17.99
2022-09-12T09:06:56.046Z,18.19
2022-09-12T09:09:31.714Z,18.24
2022-09-12T09:12:15.594Z,18.27
2022-09-12T09:15:22.096Z,18.41
2022-09-12T09:17:58.261Z,18.55
2022-09-12T09:20:51.931Z,18.65
2022-09-12T09:23:31.845Z,18.72
2022-09-12T09:26:10.595Z,18.82
2022-09-12T09:29:03.027Z,18.95
2022-09-12T09:31:38.380Z,19.15
2022-09-12T09:34:22.968Z,19.34
2022-09-12T09:37:13.830Z,19.49
2022-09-12T09:40:19.743Z,19.73
2022-09-12T09:43:00.274Z,19.90
2022-09-12T09:45:29.365Z,20.04
2022-09-12T09:48:42.490Z,20.14
2022-09-12T09:51:09.684Z,20.20
2022-09-12T09:53:51.814Z,20.31
2022-09-12T09:56:37.705Z,20.46
2022-09-12T09:59:33.707Z,20.61
2022-09-12T10:02:24.190Z,20.73
2022-09-12T10:04:59.733Z,20.83
2022-09-12T10:07:27.383Z,20.92
2022-09-12T10:10:14.544Z,21.01
2022-09-12T10:12:41.903Z,21.07
2022-09-12T10:15:22.048Z,21.15
2022-09-12T10:17:51.120Z,21.16
2022-09-12T10:20:44.241Z,21.18
2022-09-12T10:23:37.879Z,21.28
2022-09-12T10:26:19.514Z,21.35
2022-09-12T10:28:55.938Z,21.44
2022-09-12T10:31:55.367Z,21.47
2022-09-12T10:34:53.737Z,21.45
2022-09-12T10:37:32.271Z,21.53
2022-09-12T10:40:02.179Z,21.67
2022-09-12T10:42:58.896Z,21.76
2022-09-12T10:45:38.767Z,21.89
2022-09-12T10:48:29.520Z,21.90
2022-09-12T10:50:58.417Z,21.97
2022-09-12T10:53:44.867Z,22.09
2022-09-12T10:56:22.593Z,22.22
2022-09-12T10:59:31.450Z,22.32
2022-09-12T11:02:20.324Z,22.37
2022-09-12T11:05:17.459Z,22.39
2022-09-12T11:08:00.620Z,22.40
2022-09-12T11:10:38.775Z,22.51
2022-09-12T11:13:45.651Z,22.76
2022-09-12T11:16:50.554Z,22.88
2022-09-12T11:19:36.610Z,22.98
2022-09-12T11:22:26.713Z,23.14
2022-09-12T11:25:20.477Z,23.35
2022-09-12T11:28:11.493Z,23.41
2022-09-12T11:31:11.436Z,23.41
2022-09-12T11:33:48.869Z,23.43
2022-09-12T11:36:41.949Z,23.56
2022-09-12T11:39:23.926Z,23.61
2022-09-12T11:42:03.297Z,23.63
2022-09-12T11:44:42.051Z,23.64
2022-09-12T11:47:13.565Z,23.72
2022-09-12T11:49:48.609Z,23.84
2022-09-12T11:52:19.927Z,24.06
2022-09-12T11:55:05.934Z,24.10
2022-09-12T11:57:43.902Z,24.13
2022-09-12T12:00:18.585Z,24.15
2022-09-12T12:03:01.445Z,24.19
2022-09-12T12:05:52.186Z,24.29
2022-09-12T12:08:21.992Z,24.39
2022-09-12T12:11:01.904Z,24.43
2022-09-12T12:13:36.596Z,24.47
2022-09-12T12:16:12.925Z,24.61
2022-09-12T12:18:42.926Z,24.63
2022-09-12T12:21:37.726Z,24.66
2022-09-12T12:24:07.480Z,24.72
2022-09-12T12:27:22.452Z,24.80
2022-09-12T12:29:49.283Z,24.84
2022-09-12T12:32:16.188Z,24.98
2022-09-12T12:34:47.546Z,25.10
2022-09-12T12:37:20.274Z,25.13
2022-09-12T12:39:48.214Z,25.07
2022-09-12T12:42:36.313Z,25.10
2022-09-12T12:45:27.669Z,25.13
2022-09-12T12:48:10.253Z,25.27
2022-09-12T12:50:37.635Z,25.43
2022-09-12T12:53:22.584Z,25.59
2022-09-12T12:55:54.190Z,25.70
2022-09-12T12:58:33.066Z,25.74
2022-09-12T13:01:16.737Z,25.84
2022-09-12T13:04:04.616Z,25.95
2022-09-12T13:06:36.218Z,26.01
2022-09-12T13:09:24.563Z,26.06
2022-09-12T13:12:04.398Z,26.23
2022-09-12T13:14:43.466Z,26.32
2022-09-12T13:17:33.276Z,26.17
2022-09-12T13:20:28.654Z,26.06
2022-09-12T13:22:56.998Z,25.97
2022-09-12T13:25:36.970Z,26.13
2022-09-12T13:28:06.219Z,26.35
2022-09-12T13:30:42.590Z,26.37
2022-09-12T13:33:29.997Z,26.30
2022-09-12T13:36:15.421Z,26.35
2022-09-12T13:39:16.349Z,26.44
2022-09-12T13:42:21.682Z,26.43
2022-09-12T13:45:03.348Z,26.28
2022-09-12T13:47:39.361Z,26.08
2022-09-12T13:50:12.728Z,26.02
2022-09-12T13:52:39.776Z,26.02
2022-09-12T13:55:23.608Z,26.09
2022-09-12T13:58:07.423Z,26.34
2022-09-12T14:00:35.055Z,26.53
2022-09-12T14:03:54.736Z,26.79
2022-09-12T14:06:26.281Z,27.12
2022-09-12T14:09:01.282Z,27.41
2022-09-12T14:11:31.060Z,27.60
2022-09-12T14:13:58.927Z,27.83
2022-09-12T14:16:29.048Z,27.86
2022-09-12T14:18:57.102Z,27.80
2022-09-12T14:21:35.500Z,27.56
2022-09-12T14:24:08.563Z,27.32
2022-09-12T14:26:39.082Z,27.10
2022-09-12T14:29:08.301Z,27.17
2022-09-12T14:31:39.483Z,27.30
2022-09-12T14:34:17.613Z,27.52
2022-09-12T14:36:51.332Z,27.63
2022-09-12T14:39:30.758Z,27.77
2022-09-12T14:42:18.256Z,27.78
2022-09-12T14:44:58.708Z,27.72
2022-09-12T14:47:34.953Z,27.77
2022-09-12T14:50:01.981Z,27.93
2022-09-12T14:52:34.731Z,27.87
2022-09-12T14:55:32.139Z,27.80
2022-09-12T14:58:20.841Z,27.63
2022-09-12T15:01:02.375Z,27.38
2022-09-12T15:03:36.470Z,27.25
2022-09-12T15:06:08.057Z,27.07
2022-09-12T15:08:34.922Z,26.86
2022-09-12T15:11:01.818Z,26.80
2022-09-12T15:13:39.022Z,26.70
2022-09-12T15:16:12.045Z,26.64
2022-09-12T15:18:39.243Z,26.73
2022-09-12T15:21:13.212Z,26.93
2022-09-12T15:23:46.918Z,27.08
2022-09-12T15:26:18.278Z,27.03
2022-09-12T15:28:45.764Z,26.97
2022-09-12T15:31:21.346Z,26.86
2022-09-12T15:33:48.395Z,26.79
2022-09-12T15:36:20.163Z,26.74
2022-09-12T15:38:48.453Z,26.68
2022-09-12T15:41:19.900Z,26.70
2022-09-12T15:43:48.188Z,26.80
2022-09-12T15:46:17.450Z,26.85
2022-09-12T15:48:45.273Z,26.87
2022-09-12T15:51:19.029Z,26.98
2022-09-12T15:53:48.377Z,27.05
2022-09-12T15:56:18.638Z,27.06
2022-09-12T15:58:58.169Z,27.05
2022-09-12T16:01:28.282Z,27.02
2022-09-12T16:03:55.432Z,27.00
2022-09-12T16:06:23.472Z,27.03
2022-09-12T16:08:50.471Z,27.06
2022-09-12T16:11:22.971Z,26.94
2022-09-12T16:13:52.164Z,26.91
2022-09-12T16:16:20.239Z,26.94
2022-09-12T16:18:47.253Z,26.96
2022-09-12T16:21:15.691Z,26.79
2022-09-12T16:23:44.630Z,26.49
2022-09-12T16:26:11.622Z,26.44
2022-09-12T16:28:38.801Z,26.53
2022-09-12T16:31:09.029Z,26.63
2022-09-12T16:33:38.180Z,26.71
2022-09-12T16:36:18.659Z,26.75
2022-09-12T16:38:49.261Z,26.74
2022-09-12T16:41:19.379Z,26.63
2022-09-12T16:43:47.387Z,26.43
2022-09-12T16:46:24.275Z,26.12
2022-09-12T16:48:54.683Z,25.81
2022-09-12T16:51:33.556Z,25.51
2022-09-12T16:54:00.489Z,25.25
2022-09-12T16:56:27.699Z,25.04
2022-09-12T16:58:54.592Z,24.85
2022-09-12T17:01:25.239Z,24.69
2022-09-12T17:03:58.159Z,24.53
2022-09-12T17:06:26.496Z,24.39
2022-09-12T17:08:56.196Z,24.29
2022-09-12T17:11:33.158Z,24.20
2022-09-12T17:14:05.368Z,24.15
2022-09-12T17:16:36.342Z,24.09
2022-09-12T17:19:05.010Z,24.01
2022-09-12T17:21:32.910Z,23.93
2022-09-12T17:23:59.797Z,23.83
2022-09-12T17:26:27.168Z,23.76
2022-09-12T17:28:54.013Z,23.69
2022-09-12T17:31:21.079Z,23.63
2022-09-12T17:33:48.091Z,23.56
2022-09-12T17:36:17.792Z,23.52
2022-09-12T17:38:46.070Z,23.52
2022-09-12T17:41:17.728Z,23.46
2022-09-12T17:43:54.685Z,23.43
2022-09-12T17:46:24.802Z,23.38
2022-09-12T17:48:54.487Z,23.34
2022-09-12T17:51:24.830Z,23.28
2022-09-12T17:54:02.143Z,23.24
2022-09-12T17:56:31.722Z,23.22
2022-09-12T17:58:59.646Z,23.19
2022-09-12T18:01:47.151Z,23.15
2022-09-12T18:04:15.379Z,23.04
2022-09-12T18:06:47.885Z,22.95
2022-09-12T18:09:18.721Z,22.88
2022-09-12T18:11:46.727Z,22.85
2022-09-12T18:14:14.486Z,22.83
2022-09-12T18:16:42.423Z,22.79
2022-09-12T18:19:10.982Z,22.78
2022-09-12T18:21:38.319Z,22.76
2022-09-12T18:24:05.725Z,22.76
2022-09-12T18:26:33.290Z,22.76
2022-09-12T18:29:00.213Z,22.71
2022-09-12T18:31:30.249Z,22.62
2022-09-12T18:33:59.844Z,22.53
2022-09-12T18:36:27.943Z,22.42
2022-09-12T18:38:57.065Z,22.32
2022-09-12T18:41:24.915Z,22.18
2022-09-12T18:44:01.102Z,22.08
2022-09-12T18:46:30.902Z,22.00
2022-09-12T18:48:59.846Z,21.98
2022-09-12T18:51:34.049Z,21.96
2022-09-12T18:54:06.311Z,21.92
2022-09-12T18:56:37.689Z,21.86
2022-09-12T18:59:07.271Z,21.80
2022-09-12T19:01:38.335Z,21.71
2022-09-12T19:04:08.194Z,21.63
2022-09-12T19:06:41.605Z,21.56
2022-09-12T19:09:10.945Z,21.46
2022-09-12T19:11:42.562Z,21.35
2022-09-12T19:14:09.386Z,21.19
2022-09-12T19:16:36.769Z,21.02
2022-09-12T19:19:04.034Z,20.87
2022-09-12T19:21:33.044Z,20.74
2022-09-12T19:24:04.268Z,20.60
2022-09-12T19:26:32.122Z,20.47
2022-09-12T19:28:59.438Z,20.37
2022-09-12T19:31:26.736Z,20.28
2022-09-12T19:33:53.697Z,20.22
2022-09-12T19:36:43.872Z,20.18
2022-09-12T19:39:09.966Z,20.16
2022-09-12T19:41:37.050Z,20.15
2022-09-12T19:44:05.617Z,20.12
2022-09-12T19:46:32.652Z,20.09
2022-09-12T19:48:59.768Z,20.04
2022-09-12T19:51:26.639Z,20.00
2022-09-12T19:53:53.813Z,19.98
2022-09-12T19:56:21.299Z,19.94
2022-09-12T19:58:55.725Z,19.89
2022-09-12T20:01:28.358Z,19.86
2022-09-12T20:03:57.660Z,19.82
2022-09-12T20:06:26.122Z,19.79
2022-09-12T20:08:53.206Z,19.77
2022-09-12T20:11:23.413Z,19.76
2022-09-12T20:13:50.629Z,19.75
2022-09-12T20:16:25.646Z,19.72
2022-09-12T20:18:56.867Z,19.70
2022-09-12T20:21:31.668Z,19.61
2022-09-12T20:24:09.720Z,19.56
2022-09-12T20:26:36.718Z,19.52
2022-09-12T20:29:05.419Z,19.50
2022-09-12T20:31:33.444Z,19.47
2022-09-12T20:34:00.437Z,19.42
2022-09-12T20:36:27.908Z,19.36
2022-09-12T20:38:58.430Z,19.32
2022-09-12T20:41:28.182Z,19.27
2022-09-12T20:43:56.786Z,19.21
2022-09-12T20:46:26.235Z,19.15
2022-09-12T20:48:53.462Z,19.12
2022-09-12T20:51:22.354Z,19.09
2022-09-12T20:53:54.400Z,19.03
2022-09-12T20:56:23.154Z,19.05
2022-09-12T20:58:51.039Z,19.08
2022-09-12T21:01:19.577Z,19.12
2022-09-12T21:03:48.426Z,19.13
2022-09-12T21:06:19.580Z,19.14
2022-09-12T21:08:48.991Z,19.19
2022-09-12T21:11:18.367Z,19.21
2022-09-12T21:13:46.070Z,19.21
2022-09-12T21:16:16.485Z,19.18
2022-09-12T21:18:43.753Z,19.15
2022-09-12T21:21:16.069Z,19.10
2022-09-12T21:23:42.955Z,19.08
2022-09-12T21:26:09.973Z,19.04
2022-09-12T21:28:36.818Z,19.01
2022-09-12T21:31:04.050Z,19.00
2022-09-12T21:33:30.947Z,19.02
2022-09-12T21:36:03.937Z,19.07
2022-09-12T21:38:31.615Z,19.13
2022-09-12T21:41:07.002Z,19.18
2022-09-12T21:43:34.208Z,19.18
2022-09-12T21:46:02.448Z,19.18
2022-09-12T21:48:29.968Z,19.17
2022-09-12T21:50:57.199Z,19.15
2022-09-12T21:53:24.751Z,19.16
2022-09-12T21:55:51.895Z,19.23
2022-09-12T21:58:19.014Z,19.30
2022-09-12T22:00:45.944Z,19.36
2022-09-12T22:03:13.018Z,19.40
2022-09-12T22:05:40.271Z,19.45
2022-09-12T22:08:11.501Z,19.49
2022-09-12T22:10:38.670Z,19.52
2022-09-12T22:13:05.731Z,19.52
2022-09-12T22:15:41.032Z,19.51
2022-09-12T22:18:08.222Z,19.49
2022-09-12T22:20:35.028Z,19.49
2022-09-12T22:23:24.648Z,19.51
2022-09-12T22:25:55.742Z,19.51
2022-09-12T22:28:23.168Z,19.53
2022-09-12T22:30:49.989Z,19.54
2022-09-12T22:33:17.062Z,19.54
2022-09-12T22:35:44.281Z,19.56
2022-09-12T22:38:11.089Z,19.55
2022-09-12T22:40:38.334Z,19.55
2022-09-12T22:43:05.159Z,19.54
2022-09-12T22:45:32.348Z,19.53
2022-09-12T22:48:00.820Z,19.53
2022-09-12T22:50:28.603Z,19.52
2022-09-12T22:52:55.781Z,19.52
2022-09-12T22:55:22.618Z,19.52
2022-09-12T22:57:49.438Z,19.52
2022-09-12T23:00:18.057Z,19.53
2022-09-12T23:02:45.100Z,19.52
2022-09-12T23:05:12.345Z,19.52
2022-09-12T23:07:39.233Z,19.50
2022-09-12T23:10:07.035Z,19.47
2022-09-12T23:12:33.897Z,19.48
2022-09-12T23:15:00.687Z,19.46
2022-09-12T23:17:27.498Z,19.46
2022-09-12T23:19:54.324Z,19.43
2022-09-12T23:22:21.248Z,19.39
2022-09-12T23:24:48.057Z,19.33
2022-09-12T23:27:15.428Z,19.24
2022-09-12T23:29:42.235Z,19.17
2022-09-12T23:32:08.978Z,19.11
2022-09-12T23:34:36.507Z,19.06
2022-09-12T23:37:03.394Z,19.04
2022-09-12T23:39:31.800Z,19.01
2022-09-12T23:41:58.655Z,18.99
2022-09-12T23:44:25.437Z,18.93
2022-09-12T23:46:52.200Z,18.89
2022-09-12T23:49:19.594Z,18.85
2022-09-12T23:51:46.646Z,18.85
2022-09-12T23:54:13.667Z,18.85
2022-09-12T23:56:40.466Z,18.92
2022-09-12T23:59:07.681Z,18.98
